Time;durP1;ratioP1;P1;durP2;ratioP2;P2;SDS_P1;SDS_P2;PMS_P1;PMS_P2;Temp;Humidity;BMP_temperature;BMP_pressure;BME280_temperature;BME280_humidity;BME280_pressure;Samples;Min_cycle;Max_cycle;Signal;HPM_P1;HPM_P2
2022/01/13 00:00:49;;;;;;;19.90;16.37;;;;;;;-1.82;61.58;96253.19;6193641;23;20198;-64
2022/01/13 00:03:15;;;;;;;21.10;15.87;;;;;;;-1.88;61.14;96254.22;6168637;23;20197;-65
2022/01/13 00:05:40;;;;;;;22.00;15.67;;;;;;;-2.07;61.70;96250.50;6167605;23;20198;-68
2022/01/13 00:08:06;;;;;;;20.57;15.67;;;;;;;-2.11;62.21;96243.72;6193722;23;20224;-64
2022/01/13 00:10:31;;;;;;;18.73;15.33;;;;;;;-2.15;62.18;96265.34;6168157;23;20218;-64
2022/01/13 00:13:03;;;;;;;21.23;16.73;;;;;;;-2.11;62.46;96261.78;6194788;23;20193;-65
2022/01/13 00:15:47;;;;;;;21.07;16.20;;;;;;;-2.17;62.08;96267.94;6194220;23;20194;-64
2022/01/13 00:18:16;;;;;;;18.77;15.50;;;;;;;-2.13;62.31;96271.31;6194415;23;20181;-65
2022/01/13 00:26:01;;;;;;;22.13;17.80;;;;;;;-2.20;62.45;96283.50;6193408;23;20258;-64
2022/01/13 00:28:28;;;;;;;22.60;17.53;;;;;;;-2.17;62.63;96280.00;6194433;23;20217;-66
2022/01/13 00:30:56;;;;;;;21.53;16.93;;;;;;;-2.16;62.05;96285.13;6193269;23;20251;-65
2022/01/13 00:33:24;;;;;;;22.40;17.20;;;;;;;-2.34;62.53;96290.78;6169489;23;20178;-64
2022/01/13 00:35:52;;;;;;;21.90;17.40;;;;;;;-2.48;61.94;96292.00;6168592;23;20232;-64
2022/01/13 00:38:18;;;;;;;21.17;16.80;;;;;;;-2.51;62.08;96296.41;6194794;23;20204;-65
2022/01/13 00:40:44;;;;;;;22.63;17.67;;;;;;;-2.48;61.80;96292.00;6194129;23;20237;-67
2022/01/13 00:43:09;;;;;;;19.87;17.13;;;;;;;-2.48;61.35;96301.47;6192916;23;20244;-66
2022/01/13 00:45:34;;;;;;;22.27;16.43;;;;;;;-2.76;61.56;96302.19;6168687;23;20186;-64
2022/01/13 00:48:00;;;;;;;21.33;16.70;;;;;;;-2.76;61.96;96309.91;6169143;23;20174;-63
2022/01/13 00:50:25;;;;;;;22.37;16.90;;;;;;;-2.76;61.72;96311.66;6169139;23;20306;-68
2022/01/13 00:52:51;;;;;;;20.97;16.63;;;;;;;-2.89;61.65;96298.22;6169380;23;20254;-66
2022/01/13 00:55:21;;;;;;;22.47;18.00;;;;;;;-2.98;62.19;96306.19;6169005;23;20198;-65
2022/01/13 00:57:47;;;;;;;23.67;17.23;;;;;;;-3.03;62.49;96305.47;6168723;23;20260;-64
2022/01/13 01:00:14;;;;;;;22.97;17.63;;;;;;;-3.04;62.59;96320.06;6169250;23;20260;-65
2022/01/13 01:02:39;;;;;;;23.23;17.60;;;;;;;-3.16;62.80;96304.91;6168187;23;20270;-67
2022/01/13 01:05:05;;;;;;;24.07;18.00;;;;;;;-2.99;63.25;96315.66;6193772;23;20247;-65
2022/01/13 01:07:30;;;;;;;22.57;18.03;;;;;;;-2.80;62.43;96317.78;6168085;23;20223;-66
2022/01/13 01:09:58;;;;;;;23.10;17.83;;;;;;;-2.81;62.03;96316.91;6167622;23;20202;-64
2022/01/13 01:12:24;;;;;;;25.43;18.47;;;;;;;-2.87;62.33;96319.63;6167076;23;20189;-64
2022/01/13 01:14:55;;;;;;;21.57;16.80;;;;;;;-2.93;61.74;96323.22;6168606;23;20198;-64
2022/01/13 01:17:21;;;;;;;22.93;17.67;;;;;;;-2.95;62.46;96324.13;6168596;23;20206;-65
2022/01/13 01:19:50;;;;;;;24.43;18.40;;;;;;;-2.93;62.21;96332.66;6193493;23;20245;-63
2022/01/13 01:27:26;;;;;;;22.00;17.93;;;;;;;-3.10;62.52;96320.22;6195504;23;20343;-66
2022/01/13 01:29:57;;;;;;;24.20;18.30;;;;;;;-3.11;62.44;96319.34;6192497;23;20224;-65
2022/01/13 01:32:23;;;;;;;26.80;18.90;;;;;;;-3.17;62.70;96314.38;6192711;23;20198;-65
2022/01/13 01:35:01;;;;;;;25.87;17.23;;;;;;;-3.22;62.75;96321.34;6168594;23;20206;-65
2022/01/13 01:37:30;;;;;;;21.03;17.23;;;;;;;-3.25;63.00;96316.28;6196094;23;20213;-64
2022/01/13 01:39:57;;;;;;;26.03;18.57;;;;;;;-3.15;62.50;96320.34;6169572;23;20198;-67
2022/01/13 01:42:25;;;;;;;24.03;17.77;;;;;;;-3.25;62.50;96325.72;6195223;23;20198;-65
2022/01/13 01:44:54;;;;;;;24.47;18.57;;;;;;;-3.14;62.16;96328.88;6196961;23;20182;-65
2022/01/13 01:47:22;;;;;;;25.83;18.47;;;;;;;-3.10;61.93;96333.09;6196546;23;20202;-69
2022/01/13 01:49:52;;;;;;;25.73;18.23;;;;;;;-3.20;61.98;96324.75;6169746;23;20217;-65
2022/01/13 01:52:18;;;;;;;23.70;18.03;;;;;;;-3.23;61.55;96321.41;6196221;23;20198;-67
2022/01/13 01:54:45;;;;;;;24.77;18.73;;;;;;;-3.25;61.85;96324.00;6195590;23;20189;-66
2022/01/13 01:57:11;;;;;;;24.53;18.60;;;;;;;-3.28;62.25;96320.66;6196090;23;20178;-66
2022/01/13 01:59:39;;;;;;;23.53;18.30;;;;;;;-3.35;61.94;96319.94;6170403;23;20205;-66
2022/01/13 02:02:07;;;;;;;24.40;18.60;;;;;;;-3.34;62.02;96311.38;6171064;23;20213;-64
2022/01/13 02:04:33;;;;;;;23.00;18.10;;;;;;;-3.39;61.89;96316.63;6170308;23;20277;-63
2022/01/13 02:07:02;;;;;;;21.07;16.90;;;;;;;-3.43;62.36;96296.97;6195953;23;20186;-63
2022/01/13 02:09:28;;;;;;;23.17;18.20;;;;;;;-3.33;62.02;96306.16;6169759;23;20205;-64
2022/01/13 02:11:57;;;;;;;22.80;17.63;;;;;;;-3.41;61.81;96299.53;6170214;23;20202;-63
2022/01/13 02:16:59;;;;;;;24.67;17.67;;;;;;;-3.31;61.46;96301.00;6195655;23;20257;-64
2022/01/13 02:19:25;;;;;;;21.40;17.10;;;;;;;-3.25;61.11;96300.84;6195623;23;20193;-63
2022/01/13 02:21:51;;;;;;;22.43;17.53;;;;;;;-3.22;60.74;96300.78;6168727;23;20194;-64
2022/01/13 02:24:17;;;;;;;24.30;18.03;;;;;;;-3.30;60.99;96315.53;6169645;23;20275;-64
2022/01/13 02:26:43;;;;;;;24.60;19.27;;;;;;;-3.45;61.49;96319.31;6169145;23;20210;-64
2022/01/13 02:29:08;;;;;;;23.03;18.20;;;;;;;-3.47;61.62;96305.66;6168981;23;20310;-64
2022/01/13 02:31:34;;;;;;;24.50;18.40;;;;;;;-3.48;62.11;96309.09;6169855;23;20193;-63
2022/01/13 02:33:59;;;;;;;26.70;19.40;;;;;;;-3.48;61.92;96303.94;6169655;23;20194;-63
2022/01/13 02:36:27;;;;;;;24.90;18.43;;;;;;;-3.44;62.17;96315.88;6195361;23;20174;-68
2022/01/13 02:38:54;;;;;;;20.60;16.93;;;;;;;-3.43;61.45;96317.56;6169415;23;20183;-63
2022/01/13 02:41:25;;;;;;;25.90;18.27;;;;;;;-3.42;61.59;96314.13;6193340;23;20201;-66
2022/01/13 02:43:53;;;;;;;24.43;18.20;;;;;;;-3.40;61.65;96317.47;6168364;23;20194;-64
2022/01/13 02:46:31;;;;;;;26.03;18.17;;;;;;;-3.58;61.74;96331.63;6168842;23;20198;-65
2022/01/13 02:48:58;;;;;;;25.07;17.30;;;;;;;-3.53;61.82;96325.50;6169364;23;20216;-65
2022/01/13 02:51:23;;;;;;;22.97;18.27;;;;;;;-3.41;61.27;96330.38;6169063;23;20189;-69
2022/01/13 02:53:49;;;;;;;22.90;17.07;;;;;;;-3.66;61.75;96323.22;6171123;23;20193;-66
2022/01/13 02:56:15;;;;;;;23.93;18.30;;;;;;;-3.70;62.16;96329.31;6170261;23;20194;-65
2022/01/13 02:58:40;;;;;;;24.47;17.67;;;;;;;-3.73;61.88;96318.25;6168908;23;20209;-65
2022/01/13 03:01:06;;;;;;;27.37;19.33;;;;;;;-3.79;62.27;96316.66;6194825;23;20190;-67
2022/01/13 03:03:34;;;;;;;24.90;18.23;;;;;;;-3.79;61.99;96330.34;6195550;23;20193;-65
2022/01/13 03:06:07;;;;;;;22.70;17.60;;;;;;;-3.79;61.58;96314.09;6195676;23;20174;-65
2022/01/13 03:08:33;;;;;;;22.20;16.47;;;;;;;-3.91;61.69;96309.22;6169357;23;20221;-63
2022/01/13 03:10:59;;;;;;;23.53;17.60;;;;;;;-3.84;61.77;96305.63;6170187;23;20198;-63
2022/01/13 03:13:28;;;;;;;24.03;18.73;;;;;;;-3.73;61.36;96305.41;6195596;23;20217;-64
2022/01/13 03:15:53;;;;;;;22.70;16.83;;;;;;;-3.71;60.99;96299.34;6169105;23;20211;-64
2022/01/13 03:18:19;;;;;;;22.00;17.50;;;;;;;-3.84;61.39;96305.63;6169395;23;20182;-64
2022/01/13 03:20:44;;;;;;;21.40;16.67;;;;;;;-3.84;60.93;96300.50;6169218;23;20265;-67
2022/01/13 03:23:11;;;;;;;21.97;17.13;;;;;;;-3.90;61.36;96305.75;6169010;23;20202;-66
2022/01/13 03:25:36;;;;;;;23.23;16.73;;;;;;;-3.81;61.23;96315.84;6195131;23;20190;-68
2022/01/13 03:28:07;;;;;;;22.80;17.47;;;;;;;-3.73;60.93;96313.13;6169721;23;20194;-65
2022/01/13 03:30:33;;;;;;;20.73;16.23;;;;;;;-3.82;60.64;96314.16;6195472;23;20182;-63
2022/01/13 03:33:00;;;;;;;23.90;17.07;;;;;;;-3.91;61.10;96322.06;6169908;23;20186;-64
2022/01/13 03:35:26;;;;;;;22.60;16.77;;;;;;;-3.86;60.87;96323.66;6169062;23;20212;-65
2022/01/13 03:37:52;;;;;;;23.13;16.27;;;;;;;-3.83;61.10;96327.88;6169180;23;20198;-64
2022/01/13 03:40:17;;;;;;;23.67;17.07;;;;;;;-3.81;60.64;96324.41;6195091;23;20202;-64
2022/01/13 03:42:43;;;;;;;21.93;16.40;;;;;;;-3.89;60.45;96338.28;6194269;23;20209;-64
2022/01/13 03:45:09;;;;;;;22.47;16.70;;;;;;;-3.91;60.00;96330.59;6170011;23;20380;-65
2022/01/13 03:47:34;;;;;;;21.73;16.40;;;;;;;-3.91;60.06;96330.59;6169623;23;20202;-66
2022/01/13 03:50:00;;;;;;;19.10;15.20;;;;;;;-3.90;60.22;96326.31;6195068;23;20213;-63
2022/01/13 03:52:25;;;;;;;20.17;15.57;;;;;;;-3.93;60.28;96342.66;6167353;23;20228;-64
2022/01/13 03:55:19;;;;;;;20.17;16.90;;;;;;;-3.85;59.30;96329.63;6167913;23;20236;-64
2022/01/13 03:58:03;;;;;;;18.97;15.93;;;;;;;-3.89;59.12;96323.72;6168074;23;20221;-65
2022/01/13 04:01:16;;;;;;;19.93;15.23;;;;;;;-3.94;59.70;96333.25;6168910;23;20205;-64
2022/01/13 04:03:41;;;;;;;17.97;14.27;;;;;;;-3.96;59.08;96332.41;6051620;23;20255;-65
2022/01/13 04:06:27;;;;;;;18.63;15.03;;;;;;;-4.00;58.88;96336.78;6052264;23;20192;-65
2022/01/13 04:08:54;;;;;;;18.53;14.90;;;;;;;-4.13;59.12;96330.22;6049382;23;20283;-64
2022/01/13 04:11:26;;;;;;;19.57;16.37;;;;;;;-4.13;58.97;96347.34;6049351;23;20220;-64
2022/01/13 04:16:20;;;;;;;18.70;14.83;;;;;;;-4.05;58.96;96354.03;6075242;23;20267;-65
2022/01/13 04:18:48;;;;;;;18.80;14.67;;;;;;;-4.07;58.94;96357.50;6074311;23;20204;-63
2022/01/13 04:21:16;;;;;;;19.20;15.40;;;;;;;-4.17;59.37;96359.41;6076238;23;20262;-64
2022/01/13 04:23:41;;;;;;;20.97;15.63;;;;;;;-4.33;59.12;96369.13;6075408;23;20223;-63
2022/01/13 04:26:08;;;;;;;18.70;13.60;;;;;;;-4.44;59.90;96369.34;6050979;23;20209;-62
2022/01/13 04:28:35;;;;;;;18.50;15.20;;;;;;;-4.33;59.32;96363.13;6051113;23;20229;-63
2022/01/13 04:31:00;;;;;;;20.20;14.90;;;;;;;-4.21;59.91;96378.31;6051067;23;20196;-63
2022/01/13 04:33:28;;;;;;;19.07;15.03;;;;;;;-4.18;59.44;96377.41;6075729;23;20195;-63
2022/01/13 04:35:53;;;;;;;22.43;15.40;;;;;;;-4.33;59.98;96374.28;6075707;23;20208;-63
2022/01/13 04:38:19;;;;;;;19.20;15.47;;;;;;;-4.31;59.79;96372.50;6076183;23;20211;-67
2022/01/13 04:40:47;;;;;;;17.23;13.87;;;;;;;-4.26;59.61;96364.72;6162047;23;20262;-65
2022/01/13 04:43:13;;;;;;;20.60;14.80;;;;;;;-4.19;59.92;96373.16;6194492;23;20194;-64
2022/01/13 04:45:39;;;;;;;19.50;15.17;;;;;;;-4.33;59.68;96368.28;6193826;23;20236;-63
2022/01/13 04:48:04;;;;;;;19.47;14.60;;;;;;;-4.25;59.78;96379.25;6169716;23;20185;-63
2022/01/13 04:50:30;;;;;;;17.37;13.47;;;;;;;-4.35;59.79;96364.91;6168859;23;20194;-63
2022/01/13 04:52:56;;;;;;;19.33;14.17;;;;;;;-4.28;59.24;96361.31;6168304;23;21033;-63
2022/01/13 04:55:25;;;;;;;19.70;14.93;;;;;;;-4.29;58.69;96363.06;6169525;23;20204;-63
2022/01/13 04:57:52;;;;;;;18.73;14.33;;;;;;;-4.26;59.20;96364.72;6167860;23;20250;-65
2022/01/13 05:00:19;;;;;;;17.07;13.13;;;;;;;-4.25;58.99;96368.97;6168012;23;20189;-64
2022/01/13 05:02:44;;;;;;;18.53;13.60;;;;;;;-4.26;59.45;96370.69;6166489;23;20198;-65
2022/01/13 05:05:10;;;;;;;18.13;13.07;;;;;;;-4.35;59.12;96375.19;6166375;23;20194;-65
2022/01/13 05:07:35;;;;;;;16.57;12.80;;;;;;;-4.36;58.82;96366.59;6170200;23;20205;-65
2022/01/13 05:10:02;;;;;;;18.13;12.93;;;;;;;-4.42;59.48;96374.44;6196573;23;20212;-65
2022/01/13 05:12:34;;;;;;;17.13;12.57;;;;;;;-4.35;58.68;96370.03;6195438;23;20192;-65
2022/01/13 05:15:05;;;;;;;16.00;12.03;;;;;;;-4.37;58.44;96369.22;6170396;23;20189;-65
2022/01/13 05:17:57;;;;;;;17.10;13.10;;;;;;;-4.40;58.58;96379.53;6196647;23;20201;-64
2022/01/13 05:20:20;;;;;;;15.40;12.43;;;;;;;-4.27;58.25;96392.13;6194994;23;20214;-64
2022/01/13 05:22:46;;;;;;;17.57;13.03;;;;;;;-4.34;58.48;96385.41;6170049;23;20201;-63
2022/01/13 05:25:12;;;;;;;19.03;13.53;;;;;;;-4.47;58.69;96377.06;6169994;23;20374;-64
2022/01/13 05:27:37;;;;;;;18.37;13.47;;;;;;;-4.34;58.83;96393.09;6169859;23;20178;-64
2022/01/13 05:30:05;;;;;;;16.80;12.97;;;;;;;-4.35;58.70;96398.28;6170647;23;20216;-65
2022/01/13 05:32:31;;;;;;;19.53;13.67;;;;;;;-4.39;58.67;96379.50;6196611;23;20197;-65
2022/01/13 05:34:56;;;;;;;19.87;12.60;;;;;;;-4.29;58.17;96393.03;6170542;23;20202;-64
2022/01/13 05:37:22;;;;;;;17.43;13.43;;;;;;;-4.24;58.28;96401.50;6169373;23;20198;-64
2022/01/13 05:39:47;;;;;;;16.17;12.90;;;;;;;-4.35;58.44;96391.44;6167956;23;20220;-64
2022/01/13 05:42:13;;;;;;;16.90;12.53;;;;;;;-4.46;58.38;96386.50;6193861;23;20190;-65
2022/01/13 05:44:38;;;;;;;15.50;11.67;;;;;;;-4.35;58.50;96395.72;6167954;23;20208;-67
2022/01/13 05:47:10;;;;;;;16.90;13.20;;;;;;;-4.37;57.84;96407.72;6168991;23;20249;-65
2022/01/13 05:49:38;;;;;;;16.90;13.07;;;;;;;-4.46;58.02;96404.47;6194989;23;20198;-65
2022/01/13 05:52:04;;;;;;;18.63;12.70;;;;;;;-4.50;58.33;96400.22;6169113;23;20208;-65
2022/01/13 05:54:29;;;;;;;18.17;12.20;;;;;;;-4.45;57.96;96406.13;6168583;23;20190;-64
2022/01/13 05:56:55;;;;;;;15.30;11.57;;;;;;;-4.54;57.54;96400.34;6195513;23;20180;-64
2022/01/13 05:59:21;;;;;;;15.97;11.57;;;;;;;-4.61;57.62;96407.28;6168784;23;20223;-64
2022/01/13 06:01:47;;;;;;;13.10;11.17;;;;;;;-4.58;58.00;96414.94;6194655;23;20248;-64
2022/01/13 06:04:12;;;;;;;17.43;12.13;;;;;;;-4.55;57.60;96404.59;6168230;23;20201;-64
2022/01/13 06:06:38;;;;;;;14.20;11.20;;;;;;;-4.54;58.10;96423.44;6169496;23;20250;-65
2022/01/13 06:09:03;;;;;;;16.03;13.07;;;;;;;-4.57;58.53;96428.59;6169077;23;20240;-65
2022/01/13 06:11:37;;;;;;;15.87;12.00;;;;;;;-4.58;58.70;96411.53;6167301;23;20205;-62
2022/01/13 06:14:03;;;;;;;18.20;12.17;;;;;;;-4.56;58.48;96423.47;6167815;23;20216;-63
2022/01/13 06:16:28;;;;;;;17.37;12.63;;;;;;;-4.56;58.69;96423.47;6167806;23;20186;-64
2022/01/13 06:18:54;;;;;;;19.20;13.07;;;;;;;-4.51;58.90;96421.66;6167187;23;20280;-63
2022/01/13 06:21:20;;;;;;;18.93;12.90;;;;;;;-4.57;58.80;96429.47;6194592;23;20178;-62
2022/01/13 06:23:45;;;;;;;15.80;13.23;;;;;;;-4.66;59.05;96438.16;6193336;23;20206;-63
2022/01/13 06:26:10;;;;;;;17.97;12.97;;;;;;;-4.70;58.66;96431.38;6194129;23;20193;-65
2022/01/13 06:28:36;;;;;;;17.53;12.77;;;;;;;-4.64;58.92;96440.72;6168178;23;20205;-63
2022/01/13 06:31:02;;;;;;;19.33;13.17;;;;;;;-4.66;58.99;96438.16;6168034;23;20201;-63
2022/01/13 06:33:28;;;;;;;17.23;13.33;;;;;;;-4.55;58.38;96450.81;6167275;23;20194;-63
2022/01/13 06:35:54;;;;;;;19.80;13.27;;;;;;;-4.58;58.49;96448.28;6193163;23;20186;-65
2022/01/13 06:38:20;;;;;;;16.13;11.93;;;;;;;-4.66;57.82;96455.28;6166908;23;20209;-64
2022/01/13 06:40:46;;;;;;;17.43;12.73;;;;;;;-4.67;58.32;96457.00;6168059;23;20194;-62
2022/01/13 06:43:11;;;;;;;15.80;12.63;;;;;;;-4.64;57.61;96456.09;6168240;23;20194;-64
2022/01/13 06:45:37;;;;;;;17.33;13.17;;;;;;;-4.70;58.19;96457.06;6167575;23;20194;-63
2022/01/13 06:48:02;;;;;;;17.13;12.13;;;;;;;-4.63;57.95;96456.94;6167946;23;20186;-62
2022/01/13 06:50:28;;;;;;;19.93;13.47;;;;;;;-4.63;58.01;96470.63;6192467;23;20206;-66
2022/01/13 06:52:54;;;;;;;16.23;12.20;;;;;;;-4.66;57.63;96468.09;6167230;23;20212;-67
2022/01/13 06:55:20;;;;;;;17.77;14.20;;;;;;;-4.61;57.61;96468.88;6193068;23;20200;-65
2022/01/13 06:57:46;;;;;;;17.43;12.13;;;;;;;-4.59;57.15;96469.72;6166448;23;20210;-63
2022/01/13 07:00:12;;;;;;;17.93;12.40;;;;;;;-4.53;56.63;96477.31;6168142;23;20182;-63
2022/01/13 07:02:38;;;;;;;16.87;12.30;;;;;;;-4.63;56.47;96490.31;6166353;23;20253;-63
2022/01/13 07:05:04;;;;;;;16.53;12.30;;;;;;;-4.82;56.80;96484.63;6192101;23;20201;-62
2022/01/13 07:07:39;;;;;;;19.13;11.63;;;;;;;-4.69;56.55;96481.84;6134190;23;1248587;-63
2022/01/13 07:10:06;;;;;;;18.47;11.97;;;;;;;-4.51;56.13;96488.41;6148140;23;20216;-64
2022/01/13 07:12:31;;;;;;;13.90;11.10;;;;;;;-4.40;54.71;96500.22;6167726;23;20220;-63
2022/01/13 07:14:57;;;;;;;13.53;9.87;;;;;;;-4.64;55.28;96501.47;6193718;23;20182;-63
2022/01/13 07:17:23;;;;;;;15.33;10.97;;;;;;;-4.66;54.78;96510.00;6168873;23;20205;-62
2022/01/13 07:19:51;;;;;;;14.60;11.40;;;;;;;-4.60;55.21;96490.25;6192853;23;20213;-64
2022/01/13 07:22:17;;;;;;;15.93;11.20;;;;;;;-4.54;55.04;96485.06;6165763;23;20278;-64
2022/01/13 07:24:43;;;;;;;14.40;11.80;;;;;;;-4.68;55.56;96505.78;6165612;23;20229;-65
2022/01/13 07:27:08;;;;;;;16.90;12.43;;;;;;;-4.60;55.60;96491.09;6161785;23;20190;-63
2022/01/13 07:29:34;;;;;;;13.77;10.60;;;;;;;-4.61;55.50;96502.25;6164958;23;20209;-63
2022/01/13 07:32:00;;;;;;;13.77;11.10;;;;;;;-4.63;55.57;96504.00;6166368;23;20272;-63
2022/01/13 07:34:25;;;;;;;15.23;11.57;;;;;;;-4.61;55.51;96489.41;6167029;23;20300;-64
2022/01/13 07:36:51;;;;;;;13.93;10.37;;;;;;;-4.52;54.89;96501.25;6192824;23;20213;-63
2022/01/13 07:39:17;;;;;;;15.20;11.73;;;;;;;-4.28;54.67;96502.56;6193628;23;20178;-63
2022/01/13 07:41:43;;;;;;;15.93;10.13;;;;;;;-4.45;54.92;96496.00;6167893;23;20204;-64
2022/01/13 07:44:09;;;;;;;14.73;10.40;;;;;;;-4.41;54.38;96498.50;6169072;23;20198;-65
2022/01/13 07:46:35;;;;;;;14.27;11.57;;;;;;;-4.35;54.77;96514.69;6194678;23;20202;-64
2022/01/13 07:49:01;;;;;;;18.43;10.70;;;;;;;-4.27;54.42;96517.13;6194489;23;20194;-63
2022/01/13 07:51:28;;;;;;;17.67;11.60;;;;;;;-4.22;54.62;96535.88;6169661;23;20209;-64
2022/01/13 07:53:55;;;;;;;15.27;11.90;;;;;;;-4.12;53.86;96532.25;6196371;23;20182;-63
2022/01/13 07:56:20;;;;;;;14.77;11.33;;;;;;;-4.12;53.85;96542.53;6167779;23;20253;-63
2022/01/13 07:58:46;;;;;;;15.03;10.97;;;;;;;-4.07;53.40;96547.59;6194243;23;20194;-63
2022/01/13 08:01:12;;;;;;;17.13;11.73;;;;;;;-4.10;53.10;96557.94;6168714;23;20209;-66
2022/01/13 08:03:38;;;;;;;13.80;10.43;;;;;;;-3.99;52.79;96554.28;6194287;23;20193;-63
2022/01/13 08:06:04;;;;;;;13.53;10.30;;;;;;;-3.99;51.55;96553.44;6169392;23;20209;-62
2022/01/13 08:08:35;;;;;;;15.53;10.90;;;;;;;-4.11;52.22;96549.38;6169747;23;20210;-64
2022/01/13 08:11:02;;;;;;;14.87;10.53;;;;;;;-4.07;52.45;96555.31;6194739;23;20220;-63
2022/01/13 08:13:27;;;;;;;15.40;11.30;;;;;;;-4.09;52.79;96565.63;6194497;23;20205;-63
2022/01/13 08:15:55;;;;;;;16.07;11.67;;;;;;;-4.06;52.74;96568.13;6168550;23;20197;-63
2022/01/13 08:21:04;;;;;;;14.70;11.47;;;;;;;-4.16;51.57;96592.28;6194902;23;20221;-63
2022/01/13 08:23:30;;;;;;;15.17;10.80;;;;;;;-4.20;52.33;96567.50;6194258;23;20209;-65
2022/01/13 08:25:56;;;;;;;14.90;10.13;;;;;;;-4.05;51.79;96574.97;6169539;23;20213;-63
2022/01/13 08:28:21;;;;;;;16.07;10.87;;;;;;;-3.87;51.22;96583.25;6168473;23;20224;-63
2022/01/13 08:30:47;;;;;;;15.87;10.83;;;;;;;-3.69;50.38;96585.47;6168281;23;20201;-63
2022/01/13 08:33:13;;;;;;;16.53;10.33;;;;;;;-3.59;49.78;96573.31;6168107;23;20194;-64
2022/01/13 08:35:43;;;;;;;14.53;11.27;;;;;;;-3.82;49.48;96587.44;6165720;23;20206;-62
2022/01/13 08:38:16;;;;;;;14.97;10.53;;;;;;;-3.87;50.09;96580.69;6168354;23;20206;-64
2022/01/13 08:40:43;;;;;;;13.57;10.90;;;;;;;-3.89;49.88;96590.13;6194393;23;20202;-64
2022/01/13 08:43:08;;;;;;;13.83;10.00;;;;;;;-4.10;50.26;96581.06;6170600;23;20201;-64
2022/01/13 08:45:34;;;;;;;13.20;9.90;;;;;;;-4.25;50.12;96567.59;6194760;23;20182;-65
2022/01/13 08:48:00;;;;;;;12.80;9.77;;;;;;;-4.42;50.29;96584.97;6197552;23;20178;-63
2022/01/13 08:50:25;;;;;;;12.97;9.53;;;;;;;-4.10;50.32;96584.47;6170429;23;20253;-64
2022/01/13 08:52:51;;;;;;;16.07;10.73;;;;;;;-3.85;49.76;96590.06;6194954;23;20194;-65
2022/01/13 08:55:16;;;;;;;11.87;10.57;;;;;;;-4.12;49.89;96588.78;6196800;23;20269;-66
2022/01/13 08:57:42;;;;;;;12.60;10.57;;;;;;;-4.02;49.54;96595.47;6169709;23;20193;-65
2022/01/13 09:00:09;;;;;;;13.37;9.87;;;;;;;-4.03;49.38;96578.38;6171473;23;20237;-64
2022/01/13 09:02:39;;;;;;;16.63;10.30;;;;;;;-4.00;48.94;96578.31;6170907;23;20206;-65
2022/01/13 09:05:08;;;;;;;12.73;10.00;;;;;;;-4.25;49.53;96582.13;6170975;23;20217;-64
2022/01/13 09:07:33;;;;;;;12.20;8.83;;;;;;;-4.36;49.91;96584.88;6170159;23;20210;-67
2022/01/13 09:09:59;;;;;;;12.27;9.43;;;;;;;-4.17;49.44;96579.44;6196825;23;20233;-65
2022/01/13 09:12:25;;;;;;;11.80;9.90;;;;;;;-4.22;49.59;96571.84;6170475;23;20178;-63
2022/01/13 09:14:57;;;;;;;14.07;9.10;;;;;;;-4.12;49.61;96572.50;6170809;23;20189;-63
2022/01/13 09:17:24;;;;;;;14.80;9.33;;;;;;;-3.82;49.73;96569.44;6196737;23;20206;-66
2022/01/13 09:19:51;;;;;;;13.07;9.27;;;;;;;-3.57;48.78;96562.13;6170737;23;20284;-65
2022/01/13 09:22:17;;;;;;;13.03;10.07;;;;;;;-3.45;48.21;96571.31;6196336;23;20206;-65
2022/01/13 09:24:42;;;;;;;13.10;9.90;;;;;;;-3.29;47.93;96563.31;6194440;23;20189;-64
2022/01/13 09:27:08;;;;;;;11.43;9.00;;;;;;;-3.55;48.07;96557.81;6169774;23;20217;-61
2022/01/13 09:29:33;;;;;;;14.37;9.60;;;;;;;-3.44;48.33;96546.47;6194665;23;20205;-62
2022/01/13 09:31:59;;;;;;;13.57;9.97;;;;;;;-3.31;48.52;96535.06;6168636;23;20208;-61
2022/01/13 09:34:25;;;;;;;11.57;8.90;;;;;;;-3.24;47.84;96528.91;6169371;23;20216;-62
2022/01/13 09:36:50;;;;;;;14.93;10.03;;;;;;;-2.97;47.77;96539.50;6170395;23;20217;-64
2022/01/13 09:39:16;;;;;;;13.50;10.33;;;;;;;-2.79;47.16;96539.09;6171359;23;20233;-64
2022/01/13 09:41:44;;;;;;;12.73;9.53;;;;;;;-2.64;46.40;96531.94;6194178;23;20213;-62
2022/01/13 09:44:10;;;;;;;15.53;9.57;;;;;;;-2.12;45.55;96525.53;6155685;23;20197;-65
2022/01/13 09:46:37;;;;;;;14.17;9.43;;;;;;;-2.12;45.29;96530.69;6169620;23;20245;-63
2022/01/13 09:49:05;;;;;;;14.07;9.63;;;;;;;-2.33;45.43;96522.59;6169495;23;20202;-62
2022/01/13 09:51:36;;;;;;;13.90;10.17;;;;;;;-2.46;45.71;96527.22;6194427;23;20174;-64
2022/01/13 09:54:05;;;;;;;14.60;10.07;;;;;;;-2.49;45.84;96521.25;6170396;23;20206;-64
2022/01/13 09:56:33;;;;;;;15.20;10.10;;;;;;;-2.69;46.08;96525.16;6195528;23;20204;-65
2022/01/13 09:58:59;;;;;;;12.83;9.43;;;;;;;-2.62;46.01;96504.41;6169823;23;20197;-66
2022/01/13 10:01:24;;;;;;;14.53;10.93;;;;;;;-2.69;46.53;96486.53;6169608;23;20189;-66
2022/01/13 10:03:50;;;;;;;15.60;10.80;;;;;;;-2.48;46.28;96474.03;6169291;23;20198;-65
2022/01/13 10:06:17;;;;;;;13.60;11.43;;;;;;;-2.64;46.56;96470.13;6195973;23;20178;-64
2022/01/13 10:08:49;;;;;;;15.73;10.50;;;;;;;-2.80;47.41;96485.94;6169085;23;20221;-68
2022/01/13 10:11:36;;;;;;;13.37;10.20;;;;;;;-3.35;48.24;96487.13;6196255;23;20221;-64
2022/01/13 10:14:01;;;;;;;12.93;9.33;;;;;;;-3.44;48.57;96479.63;6196268;23;20204;-65
2022/01/13 10:16:28;;;;;;;13.03;9.37;;;;;;;-3.20;47.58;96467.97;6195233;23;20201;-68
2022/01/13 10:18:54;;;;;;;16.73;9.90;;;;;;;-2.71;46.53;96480.56;6169774;23;20251;-64
2022/01/13 10:21:20;;;;;;;16.37;10.70;;;;;;;-2.29;46.12;96467.53;6195637;23;20185;-65
2022/01/13 10:24:06;;;;;;;13.17;9.20;;;;;;;-2.13;45.27;96454.28;6168655;23;20217;-64
2022/01/13 10:26:34;;;;;;;13.10;9.40;;;;;;;-1.95;45.06;96443.47;6168449;23;20208;-65
2022/01/13 10:29:00;;;;;;;15.03;10.43;;;;;;;-2.01;45.61;96431.56;6169012;23;20279;-65
2022/01/13 10:31:51;;;;;;;17.30;10.83;;;;;;;-1.70;45.41;96442.81;6169576;23;20201;-65
2022/01/13 10:34:22;;;;;;;14.33;10.77;;;;;;;-1.67;44.65;96437.56;6195913;23;20252;-67
2022/01/13 10:37:13;;;;;;;15.53;10.40;;;;;;;-1.29;44.03;96426.13;6169243;23;20201;-68
2022/01/13 10:39:54;;;;;;;14.90;10.50;;;;;;;-1.38;44.45;96434.16;6167906;23;20197;-68
2022/01/13 10:45:26;;;;;;;15.77;10.57;;;;;;;-1.08;43.79;96428.97;6195370;23;20277;-63
2022/01/13 10:47:55;;;;;;;14.43;10.87;;;;;;;-1.37;44.59;96412.59;6196389;23;20193;-66
2022/01/13 10:50:25;;;;;;;15.30;11.13;;;;;;;-1.52;45.13;96403.59;6169998;23;20202;-65
2022/01/13 10:52:51;;;;;;;16.97;10.53;;;;;;;-1.13;44.34;96417.03;6193733;23;20209;-64
2022/01/13 10:55:22;;;;;;;13.60;10.23;;;;;;;-0.82;43.10;96397.19;6168666;23;20198;-67
2022/01/13 10:57:49;;;;;;;14.73;10.50;;;;;;;-0.36;42.68;96390.50;6193446;23;20257;-68
2022/01/13 11:00:19;;;;;;;15.40;11.03;;;;;;;-0.69;42.47;96398.47;6169042;23;20173;-63
2022/01/13 11:02:58;;;;;;;15.47;11.20;;;;;;;-0.72;43.10;96412.34;6194205;23;20198;-64
2022/01/13 11:05:25;;;;;;;14.90;10.70;;;;;;;-0.67;41.96;96413.03;6194751;23;20197;-69
2022/01/13 11:07:51;;;;;;;14.00;10.43;;;;;;;-0.71;42.29;96419.19;6168855;23;20299;-66
2022/01/13 11:10:17;;;;;;;12.73;10.03;;;;;;;-0.57;41.41;96428.22;6168179;23;20202;-67
2022/01/13 11:12:44;;;;;;;12.97;9.67;;;;;;;-0.77;42.11;96405.63;6168759;23;20182;-66
2022/01/13 11:15:15;;;;;;;14.13;10.83;;;;;;;-0.54;41.99;96405.69;6168487;23;20193;-65
2022/01/13 11:17:43;;;;;;;15.17;10.27;;;;;;;-0.15;40.80;96389.75;6193244;23;20256;-65
2022/01/13 11:20:12;;;;;;;14.73;10.87;;;;;;;-0.38;41.04;96397.44;6194110;23;20197;-69
2022/01/13 11:22:40;;;;;;;16.83;10.07;;;;;;;-0.18;41.35;96400.22;6192878;23;20194;-66
2022/01/13 11:25:08;;;;;;;14.00;10.30;;;;;;;-0.17;41.14;96388.97;6168291;23;20209;-64
2022/01/13 11:27:34;;;;;;;15.87;10.83;;;;;;;-0.24;40.72;96396.09;6168114;23;20197;-65
2022/01/13 11:30:02;;;;;;;15.03;10.60;;;;;;;-0.18;40.87;96394.19;6167850;23;20174;-67
2022/01/13 11:32:28;;;;;;;13.77;9.80;;;;;;;0.00;39.66;96390.97;6191674;23;20210;-64
2022/01/13 11:34:58;;;;;;;12.13;9.80;;;;;;;-0.37;40.25;96389.66;6167464;23;20202;-62
2022/01/13 11:37:28;;;;;;;12.63;10.10;;;;;;;-0.39;40.72;96385.44;6166871;23;20209;-66
2022/01/13 11:39:54;;;;;;;15.60;10.50;;;;;;;-0.21;41.19;96387.41;6166713;23;20198;-65